Time;durP1;ratioP1;P1;durP2;ratioP2;P2;SDS_P1;SDS_P2;PMS_P1;PMS_P2;Temp;Humidity;BMP_temperature;BMP_pressure;BME280_temperature;BME280_humidity;BME280_pressure;Samples;Min_cycle;Max_cycle;Signal;HPM_P1;HPM_P2
2021/09/20 00:01:11;;;;;;;3.05;1.92;;;11.50;99.90;;;;;;5032913;28;20060;-62
2021/09/20 00:03:37;;;;;;;1.70;1.20;;;11.50;99.90;;;;;;5031107;28;20465;-62
2021/09/20 00:06:03;;;;;;;3.15;1.58;;;11.50;99.90;;;;;;5032434;28;20049;-62
2021/09/20 00:08:29;;;;;;;3.55;2.20;;;11.40;99.90;;;;;;5032468;28;20508;-60
2021/09/20 00:10:54;;;;;;;2.58;2.05;;;11.40;99.90;;;;;;5032713;28;20543;-62
2021/09/20 00:13:20;;;;;;;1.65;1.52;;;11.40;99.90;;;;;;5032593;28;20037;-62
2021/09/20 00:15:45;;;;;;;2.67;1.73;;;11.50;99.90;;;;;;5012946;28;20093;-62
2021/09/20 00:18:11;;;;;;;1.77;1.50;;;11.40;99.90;;;;;;5011609;28;20053;-59
2021/09/20 00:20:37;;;;;;;2.03;1.48;;;11.40;99.90;;;;;;5012518;28;20424;-62
2021/09/20 00:23:03;;;;;;;2.03;1.77;;;11.40;99.90;;;;;;5012863;28;20034;-62
2021/09/20 00:25:28;;;;;;;2.53;1.77;;;11.40;99.90;;;;;;5012790;28;20030;-62
2021/09/20 00:27:54;;;;;;;4.80;1.60;;;11.40;99.90;;;;;;5012514;28;20044;-60
2021/09/20 00:30:19;;;;;;;2.03;1.40;;;11.40;99.90;;;;;;5012705;28;20022;-61
2021/09/20 00:32:45;;;;;;;2.45;1.52;;;11.40;99.90;;;;;;5011544;28;20023;-60
2021/09/20 00:35:10;;;;;;;3.38;1.85;;;11.40;99.90;;;;;;5013594;28;20580;-62
2021/09/20 00:37:36;;;;;;;3.90;1.67;;;11.30;99.90;;;;;;5016754;28;20033;-62
2021/09/20 00:40:03;;;;;;;3.72;1.40;;;11.40;99.90;;;;;;5016732;28;20030;-62
2021/09/20 00:42:28;;;;;;;3.85;1.75;;;11.30;99.90;;;;;;5016759;28;20026;-62
2021/09/20 00:44:54;;;;;;;6.07;2.03;;;11.30;99.90;;;;;;5016439;28;20037;-61
2021/09/20 00:47:19;;;;;;;1.52;1.38;;;11.40;99.90;;;;;;5015346;28;20038;-62
2021/09/20 00:49:45;;;;;;;4.85;2.33;;;11.40;99.90;;;;;;5016270;28;20413;-62
2021/09/20 00:52:11;;;;;;;3.78;1.80;;;11.30;99.90;;;;;;5019854;28;20022;-62
2021/09/20 00:54:36;;;;;;;3.15;2.00;;;11.30;99.90;;;;;;5016332;28;20048;-62
2021/09/20 00:57:03;;;;;;;3.83;2.13;;;11.30;99.90;;;;;;5016478;28;20446;-61
2021/09/20 00:59:29;;;;;;;2.67;1.40;;;11.30;99.90;;;;;;5016256;28;20029;-62
2021/09/20 01:01:54;;;;;;;4.43;1.67;;;11.30;99.90;;;;;;5015022;28;20038;-63
2021/09/20 01:04:20;;;;;;;2.50;1.95;;;11.30;99.90;;;;;;5016107;28;20025;-63
2021/09/20 01:06:46;;;;;;;2.28;1.67;;;11.30;99.90;;;;;;5015789;28;20386;-61
2021/09/20 01:09:12;;;;;;;2.38;1.77;;;11.30;99.90;;;;;;5016183;28;20049;-63
2021/09/20 01:11:38;;;;;;;3.10;1.85;;;11.30;99.90;;;;;;5016127;28;20076;-62
2021/09/20 01:14:03;;;;;;;2.40;1.60;;;11.30;99.90;;;;;;5021568;28;20519;-63
2021/09/20 01:16:29;;;;;;;2.78;1.88;;;11.30;99.90;;;;;;5035777;28;20029;-60
2021/09/20 01:18:54;;;;;;;2.80;1.60;;;11.30;99.90;;;;;;5034336;28;20055;-62
2021/09/20 01:21:20;;;;;;;4.20;1.80;;;11.30;99.90;;;;;;5035644;28;20112;-61
2021/09/20 01:23:46;;;;;;;2.80;1.90;;;11.30;99.90;;;;;;5035509;28;20029;-63
2021/09/20 01:26:13;;;;;;;2.58;1.67;;;11.30;99.90;;;;;;5035388;28;20026;-62
2021/09/20 01:28:40;;;;;;;2.15;1.60;;;11.30;99.90;;;;;;5035240;28;20639;-62
2021/09/20 01:31:06;;;;;;;2.00;1.50;;;11.30;99.90;;;;;;5035705;28;20436;-62
2021/09/20 01:33:31;;;;;;;4.55;1.70;;;11.30;99.90;;;;;;5033954;28;20104;-63
2021/09/20 01:35:57;;;;;;;3.50;1.98;;;11.30;99.90;;;;;;5035159;28;20420;-59
2021/09/20 01:38:22;;;;;;;2.45;1.80;;;11.30;99.90;;;;;;5035425;28;20042;-63
2021/09/20 01:40:48;;;;;;;3.95;1.70;;;11.30;99.90;;;;;;5035293;28;20030;-62
2021/09/20 01:43:14;;;;;;;2.63;1.58;;;11.30;99.90;;;;;;5035391;28;20065;-63
2021/09/20 01:45:39;;;;;;;3.13;1.77;;;11.30;99.90;;;;;;5035071;28;20037;-62
2021/09/20 01:48:05;;;;;;;2.13;1.55;;;11.20;99.90;;;;;;5032730;28;20420;-60
2021/09/20 01:50:31;;;;;;;2.63;1.80;;;11.20;99.90;;;;;;5034936;28;20419;-59
2021/09/20 01:52:57;;;;;;;2.05;1.73;;;11.30;99.90;;;;;;5026387;28;20033;-58
2021/09/20 01:55:22;;;;;;;1.75;1.30;;;11.20;99.90;;;;;;5015290;28;20477;-63
2021/09/20 01:57:48;;;;;;;3.92;1.98;;;11.20;99.90;;;;;;5015496;28;20034;-61
2021/09/20 02:00:17;;;;;;;2.78;1.80;;;11.20;99.90;;;;;;5015131;28;20030;-61
2021/09/20 02:02:42;;;;;;;2.08;1.70;;;11.20;99.90;;;;;;5013786;28;20034;-62
2021/09/20 02:05:08;;;;;;;3.53;1.67;;;11.20;99.90;;;;;;5014836;28;20105;-62
2021/09/20 02:07:34;;;;;;;2.00;1.67;;;11.10;99.90;;;;;;5014906;28;20030;-62
2021/09/20 02:10:00;;;;;;;3.10;2.05;;;11.20;99.90;;;;;;5015020;28;20072;-61
2021/09/20 02:12:26;;;;;;;3.30;1.63;;;11.10;99.90;;;;;;5015164;28;20074;-60
2021/09/20 02:14:51;;;;;;;3.30;1.70;;;11.10;99.90;;;;;;5026922;28;20029;-61
2021/09/20 02:17:17;;;;;;;4.40;2.13;;;11.10;99.90;;;;;;5033443;28;20045;-60
2021/09/20 02:19:42;;;;;;;2.33;1.65;;;11.10;99.90;;;;;;5034473;28;20037;-62
2021/09/20 02:22:08;;;;;;;2.38;1.70;;;11.10;99.90;;;;;;5033353;28;20025;-60
2021/09/20 02:24:34;;;;;;;2.60;1.83;;;11.10;99.90;;;;;;5034382;28;20033;-63
2021/09/20 02:27:00;;;;;;;1.67;1.17;;;11.10;99.90;;;;;;5034762;28;20030;-62
2021/09/20 02:29:25;;;;;;;2.90;1.80;;;11.10;99.90;;;;;;5034406;28;20480;-62
2021/09/20 02:31:51;;;;;;;2.78;2.10;;;11.10;99.90;;;;;;5033131;28;20468;-61
2021/09/20 02:34:17;;;;;;;1.80;1.40;;;11.10;99.90;;;;;;5034303;28;20029;-62
2021/09/20 02:36:43;;;;;;;2.60;1.13;;;11.10;99.90;;;;;;5034302;28;20468;-63
2021/09/20 02:39:09;;;;;;;1.98;1.70;;;11.10;99.90;;;;;;5034128;28;20072;-59
2021/09/20 02:41:34;;;;;;;2.13;1.60;;;11.10;99.90;;;;;;5034294;28;20026;-62
2021/09/20 02:44:00;;;;;;;3.63;2.30;;;11.10;99.90;;;;;;5033976;28;20457;-60
2021/09/20 02:46:25;;;;;;;3.65;2.00;;;11.10;99.90;;;;;;5034178;28;20423;-63
2021/09/20 02:48:51;;;;;;;5.43;2.35;;;11.10;99.90;;;;;;5032473;28;20057;-58
2021/09/20 02:51:16;;;;;;;2.10;1.85;;;11.10;99.90;;;;;;5034170;28;20029;-62
2021/09/20 02:53:42;;;;;;;2.95;1.80;;;11.10;99.90;;;;;;5019032;28;20508;-60
2021/09/20 02:56:07;;;;;;;4.82;1.83;;;11.10;99.90;;;;;;5014039;28;20022;-63
2021/09/20 02:58:33;;;;;;;2.20;1.60;;;11.10;99.90;;;;;;5013954;28;20042;-62
2021/09/20 03:00:59;;;;;;;5.28;2.00;;;11.10;99.90;;;;;;5013914;28;20177;-62
2021/09/20 03:03:24;;;;;;;3.10;1.77;;;11.20;99.90;;;;;;5012915;28;20030;-62
2021/09/20 03:05:50;;;;;;;2.63;2.00;;;11.10;99.90;;;;;;5013597;28;20505;-59
2021/09/20 03:08:15;;;;;;;1.77;1.48;;;11.20;99.90;;;;;;5013876;28;20026;-63
2021/09/20 03:10:41;;;;;;;3.35;1.75;;;11.20;99.90;;;;;;5013771;28;20022;-58
2021/09/20 03:13:06;;;;;;;2.17;1.55;;;11.10;99.90;;;;;;5013837;28;20030;-63
2021/09/20 03:15:32;;;;;;;2.72;2.00;;;11.10;99.90;;;;;;5031377;28;20366;-60
2021/09/20 03:17:58;;;;;;;4.57;1.85;;;11.10;99.90;;;;;;5032133;28;20026;-62
2021/09/20 03:20:24;;;;;;;3.53;2.15;;;11.10;99.90;;;;;;5033422;28;20396;-63
2021/09/20 03:22:49;;;;;;;2.47;1.40;;;11.10;99.90;;;;;;5032168;28;20048;-62
2021/09/20 03:25:16;;;;;;;2.90;1.70;;;11.10;99.90;;;;;;5033297;28;20029;-62
2021/09/20 03:27:42;;;;;;;3.33;2.00;;;11.10;99.90;;;;;;5033415;28;20056;-62
2021/09/20 03:30:09;;;;;;;3.60;1.70;;;11.10;99.90;;;;;;5033172;28;20412;-62
2021/09/20 03:32:35;;;;;;;2.05;1.58;;;11.10;99.90;;;;;;5031887;28;20017;-62
2021/09/20 03:35:00;;;;;;;4.85;2.30;;;11.10;99.90;;;;;;5033035;28;20064;-60
2021/09/20 03:37:26;;;;;;;2.80;1.90;;;11.10;99.90;;;;;;5033266;28;20040;-63
2021/09/20 03:39:51;;;;;;;2.70;1.80;;;11.10;99.90;;;;;;5032877;28;20385;-62
2021/09/20 03:42:17;;;;;;;3.92;2.10;;;11.10;99.90;;;;;;5033437;28;20116;-61
2021/09/20 03:44:42;;;;;;;3.22;1.58;;;11.10;99.90;;;;;;5032942;28;20037;-62
2021/09/20 03:47:08;;;;;;;5.13;2.35;;;11.10;99.90;;;;;;5031565;28;20481;-61
2021/09/20 03:49:33;;;;;;;2.63;1.67;;;11.10;99.90;;;;;;5032973;28;20493;-63
2021/09/20 03:51:59;;;;;;;2.78;1.90;;;11.10;99.90;;;;;;5032152;28;20032;-62
2021/09/20 03:54:24;;;;;;;3.65;1.80;;;11.10;99.90;;;;;;5012846;28;20037;-62
2021/09/20 03:56:50;;;;;;;2.63;1.70;;;11.10;99.90;;;;;;5013079;28;20028;-62
2021/09/20 03:59:15;;;;;;;3.55;1.60;;;11.10;99.90;;;;;;5013066;28;20435;-62
2021/09/20 04:01:41;;;;;;;4.70;2.55;;;11.10;99.90;;;;;;5010887;28;20538;-60
2021/09/20 04:04:06;;;;;;;5.30;2.15;;;11.10;99.90;;;;;;5012494;28;20069;-62
2021/09/20 04:06:32;;;;;;;2.97;1.80;;;11.10;99.90;;;;;;5012860;28;20048;-61
2021/09/20 04:09:02;;;;;;;2.40;1.60;;;11.10;99.90;;;;;;5026171;28;20061;-59
2021/09/20 04:11:28;;;;;;;4.93;2.20;;;11.10;99.90;;;;;;5032023;28;20041;-61
2021/09/20 04:13:53;;;;;;;4.38;1.80;;;11.10;99.90;;;;;;5032262;28;20033;-63
2021/09/20 04:16:19;;;;;;;5.63;1.95;;;11.10;99.90;;;;;;5032222;28;20032;-62
2021/09/20 04:18:44;;;;;;;4.57;2.08;;;11.10;99.90;;;;;;5031134;28;20037;-62
2021/09/20 04:21:10;;;;;;;4.00;1.55;;;11.10;99.90;;;;;;5032245;28;20025;-62
2021/09/20 04:23:35;;;;;;;2.45;1.75;;;11.10;99.90;;;;;;5032406;28;20544;-62
2021/09/20 04:26:01;;;;;;;2.90;1.50;;;11.10;99.90;;;;;;5031982;28;20033;-63
2021/09/20 04:28:26;;;;;;;2.50;1.70;;;11.10;99.90;;;;;;5032281;28;20033;-62
2021/09/20 04:30:52;;;;;;;3.78;1.65;;;11.10;99.90;;;;;;5032135;28;20100;-62
2021/09/20 04:33:20;;;;;;;3.47;1.85;;;11.10;99.90;;;;;;5022799;28;20032;-62
2021/09/20 04:35:47;;;;;;;3.80;2.10;;;11.10;99.90;;;;;;5032012;28;20026;-62
2021/09/20 04:38:13;;;;;;;2.25;1.70;;;11.10;99.90;;;;;;5032057;28;20029;-63
2021/09/20 04:40:39;;;;;;;3.67;1.90;;;11.10;99.90;;;;;;5032019;28;20037;-62
2021/09/20 04:43:08;;;;;;;2.60;1.73;;;11.00;99.90;;;;;;5031860;28;20034;-60
2021/09/20 04:45:37;;;;;;;2.85;1.90;;;11.10;99.90;;;;;;5019654;28;20444;-63
2021/09/20 04:48:04;;;;;;;3.97;2.10;;;11.10;99.90;;;;;;5010912;28;20208;-63
2021/09/20 04:50:29;;;;;;;4.45;1.95;;;11.10;99.90;;;;;;5012347;28;20091;-62
2021/09/20 04:52:55;;;;;;;3.25;2.10;;;11.10;99.90;;;;;;5015337;28;20524;-62
2021/09/20 04:55:21;;;;;;;5.32;2.20;;;11.00;99.90;;;;;;5012585;28;20021;-61
2021/09/20 04:57:46;;;;;;;3.78;2.10;;;11.10;99.90;;;;;;5017615;28;20030;-62
2021/09/20 05:00:12;;;;;;;2.30;1.60;;;11.10;99.90;;;;;;5040108;28;20481;-58
2021/09/20 05:02:38;;;;;;;2.85;1.70;;;11.10;99.90;;;;;;5029146;28;20036;-60
2021/09/20 05:05:04;;;;;;;4.53;1.88;;;11.10;99.90;;;;;;5023294;28;20034;-62
2021/09/20 05:07:30;;;;;;;4.07;2.38;;;11.10;99.90;;;;;;5030440;28;20038;-62
2021/09/20 05:09:55;;;;;;;2.97;1.73;;;11.10;99.90;;;;;;5030302;28;20392;-62
2021/09/20 05:12:21;;;;;;;2.90;2.05;;;11.10;99.90;;;;;;5028110;28;20021;-62
2021/09/20 05:14:46;;;;;;;3.03;1.70;;;11.10;99.90;;;;;;5036317;28;20056;-61
2021/09/20 05:17:13;;;;;;;2.38;1.98;;;11.10;99.90;;;;;;5028859;28;20032;-62
2021/09/20 05:19:38;;;;;;;2.65;1.98;;;11.20;99.90;;;;;;5030099;28;20026;-61
2021/09/20 05:22:04;;;;;;;3.95;2.03;;;11.20;99.90;;;;;;5032466;28;20033;-61
2021/09/20 05:24:30;;;;;;;3.05;1.63;;;11.20;99.90;;;;;;5034436;28;20556;-62
2021/09/20 05:26:55;;;;;;;3.10;1.90;;;11.20;99.90;;;;;;5035344;28;20366;-62
2021/09/20 05:29:21;;;;;;;3.25;2.15;;;11.20;99.90;;;;;;5035444;28;20026;-63
2021/09/20 05:31:47;;;;;;;3.53;2.00;;;11.30;99.90;;;;;;5034247;28;20069;-62
2021/09/20 05:34:12;;;;;;;3.33;1.88;;;11.30;99.90;;;;;;5035344;28;20506;-62
2021/09/20 05:36:38;;;;;;;3.00;1.90;;;11.40;99.90;;;;;;5032402;28;20579;-57
2021/09/20 05:39:03;;;;;;;2.60;1.77;;;11.40;99.90;;;;;;5035197;28;20397;-57
2021/09/20 05:41:29;;;;;;;4.50;2.20;;;11.40;99.90;;;;;;5035439;28;20381;-54
2021/09/20 05:43:55;;;;;;;4.80;1.90;;;11.50;99.90;;;;;;5035042;28;20025;-56
2021/09/20 05:46:20;;;;;;;5.72;2.50;;;11.50;99.90;;;;;;5035125;28;20036;-51
2021/09/20 05:48:46;;;;;;;2.80;1.98;;;11.50;99.90;;;;;;5034085;28;20025;-54
2021/09/20 05:51:11;;;;;;;5.00;1.95;;;11.60;99.90;;;;;;5035289;28;20026;-57
2021/09/20 05:53:38;;;;;;;2.50;1.80;;;11.70;99.90;;;;;;5021010;28;20092;-58
2021/09/20 05:56:04;;;;;;;3.70;2.05;;;11.80;99.90;;;;;;5015107;28;20109;-57
2021/09/20 05:58:30;;;;;;;2.95;1.80;;;11.90;99.90;;;;;;5015055;28;20026;-57
2021/09/20 06:00:55;;;;;;;3.33;2.00;;;12.00;99.90;;;;;;5015157;28;20026;-52
2021/09/20 06:03:21;;;;;;;2.70;2.10;;;12.10;99.90;;;;;;5013913;28;20053;-59
2021/09/20 06:05:46;;;;;;;2.53;1.77;;;12.10;99.90;;;;;;4968102;28;20057;-59
2021/09/20 06:08:12;;;;;;;4.38;1.60;;;12.20;99.90;;;;;;4997585;28;20108;-57
2021/09/20 06:10:38;;;;;;;4.00;2.20;;;12.20;99.90;;;;;;5015081;28;20022;-52
2021/09/20 06:13:06;;;;;;;5.70;2.33;;;12.20;99.90;;;;;;5004774;28;20076;-56
2021/09/20 06:15:33;;;;;;;3.13;2.05;;;12.30;99.90;;;;;;5032479;28;20031;-57
2021/09/20 06:17:59;;;;;;;2.85;2.10;;;12.40;99.90;;;;;;5033849;28;20029;-55
2021/09/20 06:20:24;;;;;;;2.83;1.83;;;12.50;99.90;;;;;;5034715;28;20109;-54
2021/09/20 06:22:50;;;;;;;2.38;1.63;;;12.60;99.90;;;;;;5034639;28;20022;-56
2021/09/20 06:25:15;;;;;;;2.15;1.95;;;12.60;99.90;;;;;;5034545;28;20026;-57
2021/09/20 06:27:41;;;;;;;2.90;1.83;;;12.70;99.90;;;;;;5034228;28;20068;-56
2021/09/20 06:30:08;;;;;;;3.00;2.20;;;12.80;99.90;;;;;;5034465;28;20021;-54
2021/09/20 06:32:34;;;;;;;3.38;1.85;;;12.80;99.90;;;;;;5032939;28;20025;-56
2021/09/20 06:35:00;;;;;;;2.60;1.73;;;12.90;99.90;;;;;;5034261;28;20053;-55
2021/09/20 06:37:25;;;;;;;2.50;1.60;;;13.00;99.90;;;;;;5034322;28;20047;-54
2021/09/20 06:39:51;;;;;;;3.05;1.77;;;13.00;99.90;;;;;;5034378;28;20065;-58
2021/09/20 06:42:16;;;;;;;2.25;1.55;;;13.10;99.90;;;;;;5033957;28;20029;-58
2021/09/20 06:44:42;;;;;;;3.88;1.73;;;13.20;99.90;;;;;;5034201;28;20100;-59
2021/09/20 06:47:09;;;;;;;2.35;1.70;;;13.40;99.90;;;;;;5032995;28;20104;-56
2021/09/20 06:49:34;;;;;;;6.13;2.30;;;13.50;99.90;;;;;;5034235;28;20387;-56
2021/09/20 06:52:00;;;;;;;4.22;1.70;;;13.60;99.90;;;;;;5033447;28;20014;-56
2021/09/20 06:54:25;;;;;;;2.00;1.80;;;13.70;99.90;;;;;;5014193;28;20108;-55
2021/09/20 06:56:51;;;;;;;7.70;2.70;;;13.80;99.90;;;;;;5014097;28;20018;-59
2021/09/20 06:59:17;;;;;;;4.60;2.05;;;13.90;99.90;;;;;;5014016;28;20026;-54
2021/09/20 07:01:42;;;;;;;4.15;1.85;;;13.90;99.90;;;;;;5013182;28;20034;-55
2021/09/20 07:04:08;;;;;;;3.28;1.95;;;14.10;99.90;;;;;;5014070;28;20027;-58
2021/09/20 07:06:33;;;;;;;4.03;2.20;;;14.30;99.90;;;;;;5013784;28;20091;-57
2021/09/20 07:08:59;;;;;;;3.35;1.92;;;14.40;99.90;;;;;;5014067;28;20410;-58
2021/09/20 07:11:25;;;;;;;3.17;2.13;;;14.70;99.90;;;;;;5013814;28;20038;-57
2021/09/20 07:13:51;;;;;;;3.45;2.17;;;15.00;99.90;;;;;;5017503;28;20116;-55
2021/09/20 07:16:16;;;;;;;4.72;2.58;;;15.40;99.90;;;;;;5033410;28;20029;-55
2021/09/20 07:18:42;;;;;;;2.95;2.00;;;15.90;99.90;;;;;;5032769;28;20030;-58
2021/09/20 07:21:08;;;;;;;4.22;1.90;;;16.60;99.90;;;;;;5033317;28;20036;-56
2021/09/20 07:23:34;;;;;;;3.30;2.05;;;18.10;99.90;;;;;;5033556;28;20220;-57
2021/09/20 07:26:01;;;;;;;4.20;1.75;;;19.90;93.50;;;;;;5033330;28;20025;-58
2021/09/20 07:28:26;;;;;;;4.88;2.25;;;21.10;81.10;;;;;;5033066;28;20052;-56
2021/09/20 07:30:52;;;;;;;4.55;2.13;;;22.30;73.90;;;;;;5033418;28;20469;-59
2021/09/20 07:33:17;;;;;;;3.15;1.80;;;23.20;70.40;;;;;;5032212;28;20036;-57
2021/09/20 07:35:43;;;;;;;2.17;1.67;;;23.90;63.90;;;;;;5033253;28;20109;-57
2021/09/20 07:38:09;;;;;;;2.58;2.00;;;24.10;60.30;;;;;;5033104;28;20148;-57
2021/09/20 07:40:34;;;;;;;3.65;2.03;;;23.60;53.80;;;;;;5033190;28;20033;-54
2021/09/20 07:43:01;;;;;;;3.00;2.17;;;22.80;53.70;;;;;;5032909;28;20029;-55
2021/09/20 07:45:28;;;;;;;3.08;2.10;;;22.40;58.20;;;;;;5032007;28;20030;-56
2021/09/20 07:47:54;;;;;;;4.20;1.67;;;22.70;58.50;;;;;;5031953;28;20129;-54
2021/09/20 07:50:22;;;;;;;4.15;2.00;;;23.40;56.60;;;;;;5032955;28;20040;-57
2021/09/20 07:52:47;;;;;;;3.65;1.38;;;23.20;50.90;;;;;;5025782;28;20034;-54
2021/09/20 07:55:14;;;;;;;3.70;1.85;;;22.60;54.90;;;;;;5013455;28;20481;-54
2021/09/20 07:57:40;;;;;;;1.55;1.30;;;22.10;54.50;;;;;;5013178;28;20053;-55
2021/09/20 08:00:08;;;;;;;2.90;1.52;;;21.60;54.40;;;;;;5013135;28;20473;-57
2021/09/20 08:02:34;;;;;;;3.85;1.55;;;20.90;54.50;;;;;;5012315;28;20129;-55
2021/09/20 08:04:59;;;;;;;2.58;1.90;;;20.20;54.60;;;;;;5012974;28;20061;-53
2021/09/20 08:07:25;;;;;;;2.35;1.70;;;19.40;54.60;;;;;;5012891;28;20037;-57
2021/09/20 08:09:50;;;;;;;3.72;1.80;;;19.00;56.80;;;;;;5011821;28;20449;-55
2021/09/20 08:12:16;;;;;;;1.45;1.23;;;18.70;58.40;;;;;;5012739;28;20030;-52
2021/09/20 08:14:41;;;;;;;3.92;1.80;;;18.50;59.80;;;;;;5023590;28;20492;-54
2021/09/20 08:17:08;;;;;;;3.17;2.10;;;18.30;60.90;;;;;;5031692;28;20028;-57
2021/09/20 08:19:34;;;;;;;2.65;1.77;;;17.90;60.10;;;;;;5032684;28;20029;-55
2021/09/20 08:22:00;;;;;;;3.08;1.65;;;17.70;62.40;;;;;;5032636;28;20029;-52
2021/09/20 08:24:25;;;;;;;3.42;2.00;;;17.50;63.10;;;;;;5032413;28;20113;-54
2021/09/20 08:26:51;;;;;;;4.78;1.55;;;17.30;61.60;;;;;;5032446;28;20064;-55
2021/09/20 08:29:16;;;;;;;2.33;1.98;;;17.10;63.40;;;;;;5032427;28;20029;-53
2021/09/20 08:31:42;;;;;;;3.20;2.00;;;16.90;60.60;;;;;;5031443;28;20030;-56
2021/09/20 08:34:07;;;;;;;3.78;1.80;;;16.90;59.80;;;;;;5032476;28;20021;-54
2021/09/20 08:36:33;;;;;;;2.25;1.60;;;16.90;60.10;;;;;;5032227;28;20025;-57
2021/09/20 08:38:58;;;;;;;4.07;2.22;;;16.80;61.10;;;;;;5032547;28;20040;-58
2021/09/20 08:41:24;;;;;;;4.95;2.03;;;16.70;59.50;;;;;;5032213;28;20041;-57
2021/09/20 08:43:49;;;;;;;3.67;1.88;;;16.50;60.10;;;;;;5032552;28;20079;-56
2021/09/20 08:46:15;;;;;;;3.75;2.17;;;16.50;61.00;;;;;;5032184;28;20052;-56
2021/09/20 08:48:43;;;;;;;3.97;2.33;;;16.40;59.30;;;;;;5031248;28;20035;-57
2021/09/20 08:51:10;;;;;;;3.35;2.05;;;16.40;61.70;;;;;;5032409;28;20072;-53
2021/09/20 08:53:36;;;;;;;4.28;2.38;;;16.40;61.70;;;;;;5018300;28;20105;-56
2021/09/20 08:56:02;;;;;;;4.00;1.88;;;16.50;61.40;;;;;;5013405;28;20105;-57
2021/09/20 08:58:28;;;;;;;2.13;1.80;;;16.60;61.40;;;;;;5016310;28;20030;-57
2021/09/20 09:00:53;;;;;;;3.72;2.10;;;16.80;62.00;;;;;;5016330;28;20037;-56
2021/09/20 09:03:20;;;;;;;2.95;2.10;;;16.90;56.30;;;;;;5015608;28;20029;-57
2021/09/20 09:05:47;;;;;;;5.25;2.05;;;17.00;58.60;;;;;;5016211;28;20050;-55
2021/09/20 09:08:17;;;;;;;3.00;1.95;;;17.30;58.40;;;;;;5016140;28;20037;-56
2021/09/20 09:10:45;;;;;;;2.67;1.90;;;17.50;58.20;;;;;;5016183;28;20049;-58
2021/09/20 09:13:13;;;;;;;2.90;1.80;;;17.60;55.70;;;;;;5016098;28;20022;-54
2021/09/20 09:15:39;;;;;;;1.88;1.70;;;17.70;56.50;;;;;;5034427;28;20479;-55
2021/09/20 09:18:06;;;;;;;4.95;2.00;;;18.20;59.00;;;;;;5035045;28;20445;-57
2021/09/20 09:20:33;;;;;;;2.55;1.80;;;18.60;57.70;;;;;;5035889;28;20033;-54
2021/09/20 09:23:01;;;;;;;2.90;1.85;;;18.90;58.60;;;;;;5035610;28;20114;-55
2021/09/20 09:25:42;;;;;;;3.22;1.88;;;19.20;49.90;;;;;;5035670;28;20026;-57
2021/09/20 09:28:16;;;;;;;2.20;1.70;;;19.30;48.40;;;;;;5035638;28;20068;-52
2021/09/20 09:30:52;;;;;;;4.00;1.85;;;19.50;44.40;;;;;;5035671;28;20094;-58
2021/09/20 09:33:37;;;;;;;2.97;1.60;;;19.50;49.40;;;;;;5034571;28;20310;-56
2021/09/20 09:36:04;;;;;;;2.70;1.70;;;19.60;44.60;;;;;;5035593;28;20026;-56
2021/09/20 09:38:29;;;;;;;2.33;1.60;;;19.80;51.00;;;;;;5034300;28;20075;-55
2021/09/20 09:40:58;;;;;;;3.45;2.08;;;19.80;50.00;;;;;;5035586;28;20037;-58
2021/09/20 09:43:29;;;;;;;1.95;1.65;;;19.90;45.00;;;;;;5035411;28;20080;-54
2021/09/20 09:45:57;;;;;;;5.00;2.10;;;19.80;47.70;;;;;;5035291;28;20029;-57
2021/09/20 09:48:26;;;;;;;4.13;1.80;;;19.40;42.90;;;;;;5034004;28;20037;-54
2021/09/20 09:51:00;;;;;;;3.30;1.63;;;19.30;43.00;;;;;;5035383;28;20045;-56
2021/09/20 09:53:34;;;;;;;3.13;2.08;;;18.90;44.30;;;;;;5022623;28;20021;-53
2021/09/20 09:56:17;;;;;;;2.55;1.70;;;18.80;46.10;;;;;;5015496;28;20022;-55
2021/09/20 09:59:00;;;;;;;2.53;1.70;;;18.90;47.50;;;;;;5015180;28;20060;-55
2021/09/20 10:01:35;;;;;;;2.85;1.42;;;18.60;45.10;;;;;;5015345;28;20030;-56
2021/09/20 10:04:16;;;;;;;2.35;1.60;;;18.80;44.10;;;;;;5015182;28;20436;-55
2021/09/20 10:06:44;;;;;;;3.30;1.70;;;18.60;44.50;;;;;;5014984;28;20065;-57
2021/09/20 10:09:15;;;;;;;2.97;1.70;;;18.70;45.20;;;;;;5014181;28;20109;-56
2021/09/20 10:11:46;;;;;;;2.15;1.85;;;18.70;44.30;;;;;;5015086;28;20485;-53
2021/09/20 10:14:13;;;;;;;2.88;1.67;;;18.60;44.30;;;;;;5021741;28;20077;-54
2021/09/20 10:16:40;;;;;;;1.77;1.50;;;18.60;46.00;;;;;;5032598;28;20052;-55
2021/09/20 10:19:07;;;;;;;3.50;1.92;;;18.60;43.80;;;;;;5034389;28;20108;-56
2021/09/20 10:21:32;;;;;;;2.15;1.42;;;18.60;45.10;;;;;;5034569;28;20030;-54
2021/09/20 10:23:59;;;;;;;2.22;1.77;;;18.50;43.40;;;;;;5034555;28;20054;-56
2021/09/20 10:26:26;;;;;;;2.28;1.40;;;18.40;45.10;;;;;;5034663;28;20033;-52
2021/09/20 10:28:55;;;;;;;2.75;1.98;;;18.20;44.50;;;;;;5034293;28;20029;-54
2021/09/20 10:31:21;;;;;;;5.82;2.35;;;17.90;46.90;;;;;;5034621;28;20136;-57
2021/09/20 10:33:47;;;;;;;6.57;2.55;;;17.50;51.60;;;;;;5033287;28;20025;-55
2021/09/20 10:36:13;;;;;;;2.90;2.20;;;16.90;55.10;;;;;;5034305;28;20540;-54
2021/09/20 10:38:50;;;;;;;6.38;2.20;;;16.70;59.30;;;;;;5034256;28;20025;-53
2021/09/20 10:41:24;;;;;;;2.92;2.15;;;16.50;62.40;;;;;;5031226;28;20037;-57
2021/09/20 10:44:04;;;;;;;3.38;2.55;;;16.20;64.10;;;;;;5034065;28;20534;-55
2021/09/20 10:46:34;;;;;;;3.47;2.25;;;16.20;66.00;;;;;;5033440;28;20060;-51
2021/09/20 10:49:04;;;;;;;3.83;2.70;;;16.30;65.10;;;;;;5033995;28;20030;-54
2021/09/20 10:51:39;;;;;;;2.33;1.60;;;16.20;63.40;;;;;;5034176;28;20014;-54
2021/09/20 10:54:24;;;;;;;2.17;1.52;;;16.20;63.00;;;;;;5032006;28;20112;-56
2021/09/20 10:57:08;;;;;;;2.63;1.80;;;16.30;62.40;;;;;;5033871;28;20104;-51
2021/09/20 10:59:34;;;;;;;4.90;1.92;;;16.40;61.90;;;;;;5033739;28;20500;-53
2021/09/20 11:02:02;;;;;;;3.28;2.38;;;16.60;63.70;;;;;;5033414;28;20107;-55
2021/09/20 11:04:31;;;;;;;4.88;2.33;;;16.60;61.00;;;;;;5033644;28;20013;-49
2021/09/20 11:07:05;;;;;;;4.53;1.90;;;16.60;61.20;;;;;;5033723;28;20489;-57
2021/09/20 11:09:38;;;;;;;3.85;1.85;;;16.60;60.90;;;;;;5033454;28;20095;-54
2021/09/20 11:12:06;;;;;;;1.92;1.55;;;16.60;60.10;;;;;;5033820;28;20481;-56
2021/09/20 11:14:58;;;;;;;2.58;1.80;;;16.70;60.00;;;;;;5024057;28;20109;-56
2021/09/20 11:17:41;;;;;;;4.20;1.70;;;16.70;60.10;;;;;;5013011;28;20029;-51
2021/09/20 11:20:25;;;;;;;3.38;1.65;;;16.70;59.60;;;;;;5013621;28;20022;-52
2021/09/20 11:23:13;;;;;;;3.80;1.83;;;16.70;58.70;;;;;;5013576;28;20493;-55
2021/09/20 11:25:39;;;;;;;1.98;1.55;;;16.80;58.20;;;;;;5013680;28;20030;-57
2021/09/20 11:28:05;;;;;;;4.72;1.67;;;16.90;58.40;;;;;;5013522;28;20064;-54
2021/09/20 11:30:30;;;;;;;2.30;1.73;;;16.90;58.10;;;;;;5013586;28;20492;-53
2021/09/20 11:33:02;;;;;;;2.90;1.83;;;16.90;57.70;;;;;;5012664;28;20037;-57
2021/09/20 11:35:30;;;;;;;1.60;1.48;;;17.00;57.80;;;;;;5013454;28;20036;-54
2021/09/20 11:38:02;;;;;;;2.40;1.70;;;17.20;57.20;;;;;;5013582;28;20128;-55
2021/09/20 11:40:30;;;;;;;2.00;1.40;;;17.30;57.20;;;;;;5013564;28;20030;-57
2021/09/20 11:42:58;;;;;;;2.28;1.42;;;17.30;56.80;;;;;;5013294;28;20057;-56
2021/09/20 11:45:27;;;;;;;2.05;1.73;;;17.50;56.50;;;;;;5013426;28;20038;-57
2021/09/20 11:47:59;;;;;;;2.13;1.67;;;17.60;56.10;;;;;;5012236;28;20038;-57
2021/09/20 11:50:33;;;;;;;1.80;1.40;;;17.70;55.20;;;;;;5013339;28;20050;-58
2021/09/20 11:53:04;;;;;;;2.80;1.35;;;17.80;54.80;;;;;;5016203;28;20033;-57
2021/09/20 11:55:37;;;;;;;1.52;1.42;;;17.90;54.00;;;;;;5013153;28;20028;-57
2021/09/20 11:58:06;;;;;;;2.67;1.50;;;18.10;53.50;;;;;;5011940;28;20022;-56
2021/09/20 12:00:34;;;;;;;2.10;1.55;;;18.30;53.40;;;;;;5013197;28;20476;-56
2021/09/20 12:03:03;;;;;;;2.30;1.60;;;18.40;52.70;;;;;;5012130;28;20033;-55
2021/09/20 12:05:31;;;;;;;2.10;1.33;;;18.50;52.20;;;;;;5012768;28;20046;-57
2021/09/20 12:08:05;;;;;;;1.40;1.30;;;18.50;50.70;;;;;;5012741;28;20068;-55
2021/09/20 12:10:34;;;;;;;3.65;1.65;;;18.60;51.30;;;;;;5013035;28;20481;-57
2021/09/20 12:13:02;;;;;;;2.08;1.30;;;18.60;50.70;;;;;;5012892;28;20033;-57
2021/09/20 12:15:30;;;;;;;2.13;1.33;;;18.80;50.90;;;;;;5029821;28;20021;-55
2021/09/20 12:18:01;;;;;;;2.22;1.65;;;19.00;50.30;;;;;;5031665;28;20108;-58
2021/09/20 12:20:42;;;;;;;1.85;1.40;;;19.10;49.00;;;;;;5032361;28;20542;-53
2021/09/20 12:23:15;;;;;;;1.70;1.38;;;19.10;46.10;;;;;;5032599;28;20025;-57
2021/09/20 12:25:46;;;;;;;2.60;1.10;;;19.10;45.70;;;;;;5032456;28;20026;-58
2021/09/20 12:28:19;;;;;;;2.47;1.30;;;19.10;46.80;;;;;;5032467;28;20029;-53
2021/09/20 12:30:55;;;;;;;3.25;1.42;;;19.20;46.00;;;;;;5031770;28;20025;-53
2021/09/20 12:33:23;;;;;;;;;;;19.30;47.00;;;;;;5031990;28;20025;-57
2021/09/20 12:35:48;;;;;;;4.00;2.10;;;19.40;44.00;;;;;;5032194;28;19912;-57
2021/09/20 12:38:16;;;;;;;3.10;1.65;;;19.20;42.00;;;;;;5032416;28;20026;-56
2021/09/20 12:40:42;;;;;;;2.30;2.00;;;18.90;45.10;;;;;;5032437;28;20109;-55
2021/09/20 12:43:11;;;;;;;2.40;1.58;;;18.90;45.70;;;;;;5032502;28;20503;-56
2021/09/20 12:45:44;;;;;;;2.58;1.80;;;18.80;44.80;;;;;;5032268;28;20037;-56
2021/09/20 12:48:11;;;;;;;3.08;1.80;;;18.60;42.60;;;;;;5031372;28;20032;-51